Terminal Aerodrome Forecast
Issued by NWS Charleston, WV

Home | Current Version | Previous Version | Text Only | Print | Product List | Glossary On
Versions: 1 2 3 4 5 6 7 8 9 10 11 12 13 14 15 16 17 18 19 20 21 22
000
FTUS41 KRLX 271737
TAFHTS
TAF
KHTS 271737Z 2718/2818 23004KT P6SM OVC060
      TEMPO 2719/2721 VRB10G25KT 2SM TSRA OVC030CB
     FM272100 VRB03KT 3SM SHRA VCTS OVC030CB
     FM280000 VRB03KT 6SM -SHRA VCTS OVC030CB
     FM280500 VRB04KT 6SM BR OVC013
     FM281100 27004KT 3SM SHRA VCTS BKN023CB=

USA.gov is the U.S. government's official web portal to all federal, state and local government web resources and services.